Time;durP1;ratioP1;P1;durP2;ratioP2;P2;SDS_P1;SDS_P2;PMS_P1;PMS_P2;Temp;Humidity;BMP_temperature;BMP_pressure;BME280_temperature;BME280_humidity;BME280_pressure;Samples;Min_cycle;Max_cycle;Signal;HPM_P1;HPM_P2
2020/12/28 00:00:31;;;;;;;1.40;1.30;;;;;;;5.68;76.72;95998.81;6131159;23;20021;-84
2020/12/28 00:02:58;;;;;;;1.40;1.00;;;;;;;5.72;76.67;96017.63;6130508;23;20022;-84
2020/12/28 00:05:25;;;;;;;1.30;1.20;;;;;;;5.71;76.62;96008.97;6156350;23;20032;-84
2020/12/28 00:07:52;;;;;;;1.30;1.20;;;;;;;5.71;76.53;95989.88;6181604;23;20025;-85
2020/12/28 00:10:21;;;;;;;1.92;1.20;;;;;;;5.71;76.67;95995.09;6165843;23;20020;-86
2020/12/28 00:12:47;;;;;;;1.38;1.25;;;;;;;5.73;76.77;95998.38;6162281;23;20036;-84
2020/12/28 00:15:18;;;;;;;1.40;1.30;;;;;;;5.71;76.51;96002.91;6162577;23;20075;-84
2020/12/28 00:17:46;;;;;;;2.47;1.30;;;;;;;5.72;76.55;95996.75;6188223;23;20032;-84
2020/12/28 00:20:14;;;;;;;3.03;1.10;;;;;;;5.73;76.89;95991.34;6188933;23;20343;-87
2020/12/28 00:22:40;;;;;;;1.40;1.30;;;;;;;5.74;76.80;95997.41;6165123;23;20028;-85
2020/12/28 00:25:07;;;;;;;1.38;1.27;;;;;;;5.74;76.63;96000.84;6190583;23;20025;-83
2020/12/28 00:27:34;;;;;;;1.40;1.30;;;;;;;5.76;76.57;95992.03;6165050;23;20027;-86
2020/12/28 00:30:07;;;;;;;2.60;1.55;;;;;;;5.76;76.41;95986.81;6163989;23;20351;-88
2020/12/28 00:32:36;;;;;;;1.70;1.60;;;;;;;5.74;76.00;95989.56;6161452;23;20031;-86
2020/12/28 00:35:05;;;;;;;1.70;1.60;;;;;;;5.75;76.61;96001.66;6162433;23;20032;-85
2020/12/28 00:37:32;;;;;;;2.17;1.98;;;;;;;5.76;76.55;96011.13;6190107;23;20024;-84
2020/12/28 00:39:59;;;;;;;1.52;1.42;;;;;;;5.74;76.41;96010.44;6187611;23;20024;-88
2020/12/28 00:42:25;;;;;;;1.48;1.38;;;;;;;5.74;76.38;96006.06;6165598;23;20021;-86
2020/12/28 00:44:53;;;;;;;3.35;1.80;;;;;;;5.73;76.67;96007.00;6163269;23;20048;-85
2020/12/28 00:47:20;;;;;;;1.70;1.60;;;;;;;5.71;76.80;96010.75;6163564;23;20021;-86
2020/12/28 00:49:46;;;;;;;2.38;1.70;;;;;;;5.71;76.55;96002.91;6188348;23;20028;-86
2020/12/28 00:52:12;;;;;;;2.22;1.60;;;;;;;5.71;76.59;95995.09;6163877;23;20021;-88
2020/12/28 00:54:38;;;;;;;1.92;1.83;;;;;;;5.71;76.60;95998.53;6164730;23;20060;-84
2020/12/28 00:57:04;;;;;;;2.53;2.00;;;;;;;5.72;76.83;95996.75;6163228;23;20021;-84
2020/12/28 00:59:30;;;;;;;2.00;1.85;;;;;;;5.70;76.75;95988.25;6163089;23;20025;-86
2020/12/28 01:01:58;;;;;;;3.15;2.17;;;;;;;5.70;76.61;95988.25;6161586;23;20056;-86
2020/12/28 01:04:26;;;;;;;1.95;1.70;;;;;;;5.69;76.61;95976.16;6190355;23;20021;-87
2020/12/28 01:06:52;;;;;;;2.00;1.80;;;;;;;5.70;76.75;95977.81;6163396;23;20017;-86
2020/12/28 01:09:20;;;;;;;1.95;1.85;;;;;;;5.70;76.73;95983.00;6163289;23;20029;-86
2020/12/28 01:11:47;;;;;;;2.08;1.88;;;;;;;5.69;76.85;95987.41;6162716;23;20025;-85
2020/12/28 01:14:14;;;;;;;1.67;1.58;;;;;;;5.69;76.51;96002.25;6162584;23;20082;-89
2020/12/28 01:16:46;;;;;;;2.33;2.05;;;;;;;5.66;76.47;96002.56;6163734;23;20017;-88
2020/12/28 01:19:12;;;;;;;2.13;1.93;;;;;;;5.67;76.49;95996.34;6162346;23;20023;-86
2020/12/28 01:21:38;;;;;;;2.30;1.92;;;;;;;5.66;76.65;95997.34;6165174;23;20352;-86
2020/12/28 01:24:05;;;;;;;2.67;1.80;;;;;;;5.64;76.46;95994.06;6163591;23;20024;-86
2020/12/28 01:26:31;;;;;;;1.60;1.50;;;;;;;5.63;76.71;95992.41;6192328;23;20053;-86
2020/12/28 01:28:57;;;;;;;1.85;1.65;;;;;;;5.63;76.73;95993.25;6190204;23;20025;-86
2020/12/28 01:31:23;;;;;;;1.70;1.60;;;;;;;5.62;76.92;95996.81;6162697;23;20104;-89
2020/12/28 01:33:49;;;;;;;1.70;1.60;;;;;;;5.59;77.03;95995.34;6161933;23;20025;-85
2020/12/28 01:36:16;;;;;;;1.58;1.48;;;;;;;5.59;76.70;95997.94;6189961;23;20025;-84
2020/12/28 01:38:42;;;;;;;2.33;1.80;;;;;;;5.60;77.00;96010.00;6190498;23;20032;-86
2020/12/28 01:41:08;;;;;;;1.58;1.48;;;;;;;5.61;76.81;95995.19;6190503;23;20025;-86
2020/12/28 01:43:34;;;;;;;2.38;2.05;;;;;;;5.60;77.00;95986.53;6163148;23;20479;-86
2020/12/28 01:46:00;;;;;;;1.90;1.77;;;;;;;5.62;77.16;95983.78;6166151;23;20029;-84
2020/12/28 01:48:36;;;;;;;3.03;2.45;;;;;;;5.63;76.84;95979.34;6190701;23;20020;-85
2020/12/28 01:51:03;;;;;;;2.30;2.10;;;;;;;5.68;77.28;95979.75;6165277;23;20069;-85
2020/12/28 01:53:29;;;;;;;4.38;3.00;;;;;;;5.71;77.28;95995.09;6165484;23;20028;-88
2020/12/28 01:56:11;;;;;;;4.82;3.28;;;;;;;5.72;76.99;95992.34;6169244;23;20021;-86
2020/12/28 01:58:37;;;;;;;4.43;3.22;;;;;;;5.74;77.11;95986.97;6191032;23;20029;-85
2020/12/28 02:01:03;;;;;;;3.08;2.83;;;;;;;5.76;76.87;95987.66;6192460;23;20028;-88
2020/12/28 02:03:29;;;;;;;3.33;3.03;;;;;;;5.76;76.72;95986.81;6168309;23;20032;-85
2020/12/28 02:05:55;;;;;;;2.92;2.72;;;;;;;5.77;77.09;95994.50;6165254;23;20359;-85
2020/12/28 02:08:24;;;;;;;3.10;2.80;;;;;;;5.77;77.08;95989.28;6166051;23;20018;-86
2020/12/28 02:10:54;;;;;;;2.80;2.60;;;;;;;5.79;76.86;95983.91;6191846;23;20025;-86
2020/12/28 02:13:21;;;;;;;3.17;2.88;;;;;;;5.82;77.11;95992.25;6193604;23;20025;-85
2020/12/28 02:15:47;;;;;;;3.00;2.80;;;;;;;5.82;76.91;95987.03;6188826;23;20025;-86
2020/12/28 02:18:14;;;;;;;2.67;2.42;;;;;;;5.83;77.05;95999.09;6192087;23;20017;-84
2020/12/28 02:20:40;;;;;;;3.20;2.90;;;;;;;5.84;77.07;95998.13;6163566;23;20025;-84
2020/12/28 02:23:06;;;;;;;3.08;2.75;;;;;;;5.84;76.83;95992.91;6188197;23;20459;-86
2020/12/28 02:25:34;;;;;;;3.25;2.95;;;;;;;5.86;76.99;96000.59;6163625;23;20044;-86
2020/12/28 02:28:00;;;;;;;2.83;2.60;;;;;;;5.88;76.78;96003.88;6190506;23;20340;-84
2020/12/28 02:30:26;;;;;;;2.78;2.58;;;;;;;5.90;76.73;96003.75;6162188;23;20486;-86
2020/12/28 02:32:52;;;;;;;2.72;2.53;;;;;;;5.92;76.85;96001.78;6191478;23;20021;-85
2020/12/28 02:35:18;;;;;;;2.33;2.13;;;;;;;5.92;76.98;96002.63;6193675;23;20025;-88
2020/12/28 02:37:46;;;;;;;4.80;2.33;;;;;;;5.94;76.77;96003.28;6165404;23;20032;-88
2020/12/28 02:40:13;;;;;;;2.35;2.08;;;;;;;5.95;76.89;95999.69;6190290;23;20021;-84
2020/12/28 02:42:39;;;;;;;2.45;2.25;;;;;;;5.97;76.83;96000.38;6165668;23;20482;-83
2020/12/28 02:45:05;;;;;;;2.20;1.98;;;;;;;5.98;76.71;95988.13;6190483;23;20025;-85
2020/12/28 02:47:31;;;;;;;1.98;1.88;;;;;;;5.99;76.84;95995.00;6164949;23;20021;-86
2020/12/28 02:49:57;;;;;;;1.65;1.55;;;;;;;5.98;76.83;95995.97;6163350;23;20032;-85
2020/12/28 02:52:24;;;;;;;3.05;1.65;;;;;;;5.98;76.58;96002.00;6191375;23;20025;-88
2020/12/28 02:54:50;;;;;;;1.60;1.40;;;;;;;5.99;76.62;96001.00;6164546;23;20021;-87
2020/12/28 02:57:16;;;;;;;2.10;1.90;;;;;;;5.99;76.86;95995.00;6166131;23;20025;-85
2020/12/28 02:59:42;;;;;;;1.52;1.42;;;;;;;6.01;76.80;95995.66;6190347;23;20356;-87
2020/12/28 03:02:08;;;;;;;1.63;1.50;;;;;;;6.01;76.71;96000.88;6164381;23;20028;-86
2020/12/28 03:04:35;;;;;;;4.72;1.65;;;;;;;6.00;76.56;96000.06;6163406;23;20025;-84
2020/12/28 03:07:01;;;;;;;1.50;1.35;;;;;;;5.99;76.49;95998.41;6164434;23;20017;-86
2020/12/28 03:09:29;;;;;;;1.45;1.35;;;;;;;5.98;76.43;95996.78;6189452;23;20025;-86
2020/12/28 03:11:56;;;;;;;3.13;1.70;;;;;;;5.96;76.36;96009.16;6161266;23;20031;-85
2020/12/28 03:14:23;;;;;;;2.00;1.90;;;;;;;5.92;76.26;96007.00;6162505;23;20504;-86
2020/12/28 03:16:51;;;;;;;2.35;1.90;;;;;;;5.89;75.80;96004.69;6191158;23;20028;-89
2020/12/28 03:19:17;;;;;;;5.28;2.17;;;;;;;5.85;76.18;95997.19;6162390;23;20029;-84
2020/12/28 03:21:43;;;;;;;2.05;1.85;;;;;;;5.83;76.16;95999.09;6167317;23;20021;-86
2020/12/28 03:24:09;;;;;;;2.50;2.30;;;;;;;5.80;76.12;95990.78;6189117;23;20021;-84
2020/12/28 03:26:35;;;;;;;2.20;1.98;;;;;;;5.77;76.33;95993.66;6189048;23;20032;-86
2020/12/28 03:29:11;;;;;;;2.20;2.00;;;;;;;5.74;76.35;95990.41;6189262;23;20025;-86
2020/12/28 03:31:39;;;;;;;1.92;1.83;;;;;;;5.73;76.27;95995.78;6165012;23;20073;-84
2020/12/28 03:34:06;;;;;;;2.30;2.10;;;;;;;5.72;76.40;95988.91;6189888;23;20025;-89
2020/12/28 03:36:34;;;;;;;1.90;1.80;;;;;;;5.69;76.47;95999.66;6192553;23;20025;-87
2020/12/28 03:39:00;;;;;;;2.20;2.00;;;;;;;5.68;76.67;95990.19;6164442;23;20449;-89
2020/12/28 03:41:28;;;;;;;1.90;1.80;;;;;;;5.68;76.63;95998.03;6160431;23;20024;-89
2020/12/28 03:43:55;;;;;;;2.60;2.40;;;;;;;5.67;76.93;95999.78;6165112;23;20448;-85
2020/12/28 03:46:22;;;;;;;2.33;2.13;;;;;;;5.68;76.51;96000.63;6161673;23;20080;-87
2020/12/28 03:48:48;;;;;;;1.83;1.48;;;;;;;5.68;76.30;96005.84;6162335;23;20013;-84
2020/12/28 03:51:18;;;;;;;1.80;1.70;;;;;;;5.66;75.97;96011.22;6162994;23;20052;-86
2020/12/28 03:53:47;;;;;;;1.80;1.70;;;;;;;5.61;75.81;96016.88;6191819;23;20514;-90
2020/12/28 03:56:16;;;;;;;2.47;1.38;;;;;;;5.58;75.25;96018.97;6164467;23;20025;-86
2020/12/28 03:58:42;;;;;;;1.50;1.40;;;;;;;5.53;75.31;96008.97;6190111;23;20075;-87
2020/12/28 04:01:12;;;;;;;1.50;1.40;;;;;;;5.45;75.51;96014.94;6165616;23;20025;-86
2020/12/28 04:03:39;;;;;;;1.88;1.70;;;;;;;5.42;75.86;96006.59;6164861;23;20024;-87
2020/12/28 04:06:06;;;;;;;1.88;1.77;;;;;;;5.37;75.83;96008.78;6192448;23;20040;-87
2020/12/28 04:08:37;;;;;;;1.70;1.60;;;;;;;5.34;75.96;96018.56;6163497;23;20524;-89
2020/12/28 04:11:05;;;;;;;1.80;1.70;;;;;;;5.30;76.07;96004.19;6190545;23;20032;-85
2020/12/28 04:13:34;;;;;;;1.77;1.67;;;;;;;5.27;76.28;96012.28;6164074;23;20025;-89
2020/12/28 04:16:01;;;;;;;1.90;1.80;;;;;;;5.26;76.50;96015.03;6165349;23;20017;-87
2020/12/28 04:18:27;;;;;;;1.65;1.55;;;;;;;5.26;76.58;96018.47;6190902;23;20025;-90
2020/12/28 04:20:55;;;;;;;1.45;1.35;;;;;;;5.24;76.19;96019.59;6192065;23;20017;-87
2020/12/28 04:23:21;;;;;;;1.50;1.40;;;;;;;5.22;76.21;96017.13;6162091;23;20048;-85
2020/12/28 04:25:50;;;;;;;1.52;1.30;;;;;;;5.19;76.23;96017.41;6163657;23;20078;-85
2020/12/28 04:28:16;;;;;;;1.60;1.50;;;;;;;5.19;76.35;96012.19;6161324;23;20023;-85
2020/12/28 04:30:42;;;;;;;1.48;1.38;;;;;;;5.17;76.60;96014.16;6161645;23;20017;-87
2020/12/28 04:33:09;;;;;;;1.70;1.60;;;;;;;5.16;76.51;96017.72;6166310;23;20351;-89
2020/12/28 04:35:35;;;;;;;1.40;1.30;;;;;;;5.17;76.59;96014.97;6189050;23;20025;-87
2020/12/28 04:38:01;;;;;;;1.33;1.23;;;;;;;5.15;76.45;96013.47;6163860;23;20025;-86
2020/12/28 04:40:28;;;;;;;1.67;1.58;;;;;;;5.15;76.69;96010.84;6162211;23;20092;-86
2020/12/28 04:42:56;;;;;;;1.42;1.33;;;;;;;5.14;76.76;96002.22;6163689;23;20021;-84
2020/12/28 04:45:22;;;;;;;1.60;1.50;;;;;;;5.14;76.77;96015.28;6165158;23;20032;-87
2020/12/28 04:47:51;;;;;;;2.42;1.65;;;;;;;5.14;76.67;96015.28;6161888;23;20024;-89
2020/12/28 04:50:17;;;;;;;1.70;1.60;;;;;;;5.14;77.01;96015.28;6161850;23;20029;-85
2020/12/28 04:52:49;;;;;;;1.60;1.50;;;;;;;5.15;76.98;96016.06;6162554;23;20029;-89
2020/12/28 04:55:17;;;;;;;2.55;1.60;;;;;;;5.15;77.40;96014.28;6161199;23;20070;-86
2020/12/28 04:57:43;;;;;;;3.03;1.77;;;;;;;5.17;77.17;96009.78;6191344;23;20024;-86
2020/12/28 05:00:11;;;;;;;1.80;1.70;;;;;;;5.19;77.22;96017.41;6168337;23;20016;-84
2020/12/28 05:02:40;;;;;;;2.25;2.05;;;;;;;5.19;77.03;96013.03;6190455;23;20032;-90
2020/12/28 05:05:10;;;;;;;2.22;2.03;;;;;;;5.20;77.06;96011.25;6191369;23;20375;-89
2020/12/28 05:07:37;;;;;;;2.40;2.20;;;;;;;5.21;77.34;96008.47;6190612;23;20017;-86
2020/12/28 05:10:04;;;;;;;2.20;2.00;;;;;;;5.22;77.01;96001.50;6192830;23;20025;-87
2020/12/28 05:12:31;;;;;;;3.08;2.65;;;;;;;5.24;76.82;96010.00;6166639;23;20340;-85
2020/12/28 05:15:09;;;;;;;2.28;2.10;;;;;;;5.22;76.90;96001.50;6166336;23;20040;-86
2020/12/28 05:17:35;;;;;;;2.88;2.38;;;;;;;5.25;77.33;95998.59;6164817;23;20088;-84
2020/12/28 05:20:03;;;;;;;3.10;2.80;;;;;;;5.26;77.16;96007.22;6191125;23;20028;-89
2020/12/28 05:22:31;;;;;;;4.88;3.30;;;;;;;5.28;77.27;96002.69;6165254;23;20036;-86
2020/12/28 05:24:58;;;;;;;4.00;3.60;;;;;;;5.30;77.13;96014.63;6190992;23;20025;-86
2020/12/28 05:27:24;;;;;;;4.10;3.70;;;;;;;5.32;77.08;96017.91;6164182;23;20348;-84
2020/12/28 05:29:52;;;;;;;4.15;3.75;;;;;;;5.35;77.30;96022.00;6191361;23;20352;-89
2020/12/28 05:32:19;;;;;;;4.72;4.03;;;;;;;5.35;77.34;96017.59;6190302;23;20023;-86
2020/12/28 05:34:47;;;;;;;5.72;4.53;;;;;;;5.37;77.30;96016.63;6165487;23;20025;-86
2020/12/28 05:37:14;;;;;;;5.32;4.65;;;;;;;5.37;77.37;96017.44;6164544;23;20021;-84
2020/12/28 05:39:43;;;;;;;7.38;5.10;;;;;;;5.38;77.15;96021.69;6164438;23;20467;-86
2020/12/28 05:42:11;;;;;;;5.22;4.72;;;;;;;5.40;77.14;96013.72;6191258;23;20032;-84
2020/12/28 05:44:39;;;;;;;6.38;5.57;;;;;;;5.40;77.18;96013.72;6191696;23;20025;-89
2020/12/28 05:47:14;;;;;;;5.82;5.20;;;;;;;5.40;76.91;96005.91;6165007;23;20072;-89
2020/12/28 05:49:44;;;;;;;6.00;5.40;;;;;;;5.40;76.92;96006.72;6164887;23;20018;-86
2020/12/28 05:52:13;;;;;;;6.32;5.72;;;;;;;5.41;77.16;96010.13;6163333;23;20031;-89
2020/12/28 05:54:42;;;;;;;6.97;6.28;;;;;;;5.41;77.03;96015.34;6166755;23;20052;-84
2020/12/28 05:57:10;;;;;;;5.68;5.07;;;;;;;5.41;77.28;96012.75;6191154;23;20460;-86
2020/12/28 05:59:38;;;;;;;5.90;5.13;;;;;;;5.40;77.12;96022.38;6165363;23;20025;-85
2020/12/28 06:02:07;;;;;;;5.93;5.25;;;;;;;5.40;76.51;96031.97;6166436;23;20104;-90
2020/12/28 06:04:39;;;;;;;4.80;4.30;;;;;;;5.39;76.33;96036.41;6166055;23;20025;-87
2020/12/28 06:07:05;;;;;;;4.25;3.92;;;;;;;5.35;75.32;96035.06;6159904;23;20020;-84
2020/12/28 06:09:31;;;;;;;4.30;3.90;;;;;;;5.30;75.32;96043.28;6188335;23;20055;-84
2020/12/28 06:12:09;;;;;;;4.20;3.80;;;;;;;5.20;74.96;96047.75;6164670;23;20021;-84
2020/12/28 06:14:36;;;;;;;3.88;3.58;;;;;;;5.17;75.62;96055.88;6189193;23;20083;-86
2020/12/28 06:17:07;;;;;;;4.70;4.25;;;;;;;5.11;76.07;96056.44;6169809;23;20017;-86
2020/12/28 06:19:34;;;;;;;5.40;4.90;;;;;;;5.08;76.41;96063.59;6189328;23;20021;-85
2020/12/28 06:22:01;;;;;;;5.32;4.82;;;;;;;5.05;76.64;96058.66;6161289;23;20025;-84
2020/12/28 06:24:32;;;;;;;5.50;5.00;;;;;;;5.03;76.54;96055.38;6187182;23;20024;-85
2020/12/28 06:27:08;;;;;;;4.60;3.53;;;;;;;5.04;76.74;96067.44;6161058;23;20048;-85
2020/12/28 06:29:36;;;;;;;6.00;4.95;;;;;;;5.08;77.30;96063.59;6186690;23;20456;-85
2020/12/28 06:32:12;;;;;;;5.90;5.22;;;;;;;5.07;77.13;96061.94;6165825;23;20025;-85
2020/12/28 06:34:40;;;;;;;6.07;5.47;;;;;;;5.12;77.38;96064.09;6160801;23;20482;-84
2020/12/28 06:37:06;;;;;;;6.47;5.82;;;;;;;5.16;77.29;96064.66;6186943;23;20021;-84
2020/12/28 06:39:33;;;;;;;8.23;5.95;;;;;;;5.18;77.27;96066.16;6161300;23;20028;-85
2020/12/28 06:42:13;;;;;;;7.47;6.68;;;;;;;5.20;77.21;96064.22;6163077;23;20024;-84
2020/12/28 06:44:41;;;;;;;9.13;6.50;;;;;;;5.26;77.28;96070.63;6163434;23;20092;-85
2020/12/28 06:47:24;;;;;;;9.07;6.95;;;;;;;5.26;76.73;96080.22;6163835;23;20348;-85
2020/12/28 06:49:51;;;;;;;7.32;6.50;;;;;;;5.30;76.95;96078.97;6160833;23;20021;-84
2020/12/28 06:52:18;;;;;;;5.72;5.13;;;;;;;5.28;76.19;96073.94;6187849;23;20025;-85
2020/12/28 06:54:44;;;;;;;4.90;4.28;;;;;;;5.27;75.93;96092.31;6192228;23;20021;-85
2020/12/28 06:57:10;;;;;;;5.03;4.53;;;;;;;5.24;75.89;96097.81;6188293;23;20028;-83
2020/12/28 06:59:40;;;;;;;5.13;4.63;;;;;;;5.18;75.50;96096.59;6188387;23;20021;-85
2020/12/28 07:02:07;;;;;;;5.18;4.68;;;;;;;5.14;75.40;96095.25;6161359;23;20021;-84
2020/12/28 07:04:37;;;;;;;5.82;5.22;;;;;;;5.06;75.36;96091.59;6161997;23;20025;-83
2020/12/28 07:07:06;;;;;;;5.15;4.65;;;;;;;5.03;75.94;96098.88;6186717;23;20028;-84
2020/12/28 07:09:33;;;;;;;5.03;4.53;;;;;;;5.01;75.98;96096.41;6161452;23;20021;-84
2020/12/28 07:12:09;;;;;;;5.00;4.50;;;;;;;4.97;76.10;96087.22;6186893;23;20025;-84
2020/12/28 07:14:37;;;;;;;5.75;5.10;;;;;;;4.98;76.33;96098.47;6186629;23;20017;-84
2020/12/28 07:17:04;;;;;;;5.88;5.25;;;;;;;4.98;76.63;96099.31;6185791;23;20479;-84
2020/12/28 07:19:30;;;;;;;6.10;5.28;;;;;;;5.00;76.80;96104.34;6186888;23;20032;-84
2020/12/28 07:21:56;;;;;;;6.13;5.28;;;;;;;5.02;76.86;96105.88;6160391;23;20048;-84
2020/12/28 07:24:22;;;;;;;6.32;5.22;;;;;;;5.04;76.83;96109.16;6186000;23;20025;-84
2020/12/28 07:26:49;;;;;;;6.57;5.45;;;;;;;5.06;76.92;96104.63;6186255;23;20027;-83
2020/12/28 07:29:17;;;;;;;8.38;6.60;;;;;;;5.09;76.92;96106.13;6160391;23;20025;-83
2020/12/28 07:31:45;;;;;;;6.90;6.05;;;;;;;5.14;77.00;96110.91;6186034;23;20025;-84
2020/12/28 07:34:16;;;;;;;9.27;7.28;;;;;;;5.16;76.66;96108.97;6159669;23;20400;-83
2020/12/28 07:36:44;;;;;;;6.88;6.13;;;;;;;5.18;76.80;96114.84;6160190;23;20021;-84
2020/12/28 07:39:12;;;;;;;7.03;6.20;;;;;;;5.22;76.91;96116.22;6186341;23;20021;-84
2020/12/28 07:41:38;;;;;;;7.32;6.53;;;;;;;5.24;76.69;96114.28;6160270;23;20044;-84
2020/12/28 07:44:04;;;;;;;7.60;6.80;;;;;;;5.25;76.86;96117.72;6161081;23;20081;-84
2020/12/28 07:46:33;;;;;;;8.65;7.35;;;;;;;5.26;76.71;96121.94;6188943;23;20060;-85
2020/12/28 07:49:24;;;;;;;7.75;6.88;;;;;;;5.23;76.19;96128.28;6192758;23;20028;-85
2020/12/28 07:52:15;;;;;;;9.73;7.00;;;;;;;5.26;76.44;96135.00;6169678;23;20039;-84
2020/12/28 07:55:04;;;;;;;9.80;7.07;;;;;;;5.30;76.59;96141.56;6186284;23;20021;-84
2020/12/28 07:57:53;;;;;;;16.15;8.65;;;;;;;5.29;76.34;96142.53;6188074;23;20024;-84
2020/12/28 08:00:24;;;;;;;9.40;7.88;;;;;;;5.32;76.38;96135.25;6186262;23;20024;-84
2020/12/28 08:03:16;;;;;;;9.82;7.90;;;;;;;5.31;76.21;96146.63;6163882;23;20024;-85
2020/12/28 08:05:43;;;;;;;10.52;8.73;;;;;;;5.34;76.50;96143.75;6188954;23;20021;-85
2020/12/28 08:08:20;;;;;;;11.07;8.80;;;;;;;5.32;75.82;96144.84;6165608;23;20391;-85
2020/12/28 08:10:51;;;;;;;12.20;9.65;;;;;;;5.32;76.42;96155.28;6162264;23;20024;-84
2020/12/28 08:13:24;;;;;;;12.15;9.85;;;;;;;5.30;76.27;96150.22;6185941;23;20025;-84
2020/12/28 08:15:52;;;;;;;12.10;9.73;;;;;;;5.30;76.72;96160.66;6160330;23;20021;-83
2020/12/28 08:18:18;;;;;;;12.57;10.10;;;;;;;5.30;76.77;96159.81;6159959;23;20028;-84
2020/12/28 08:20:55;;;;;;;11.88;9.55;;;;;;;5.28;76.68;96162.59;6160181;23;20021;-84
2020/12/28 08:23:28;;;;;;;13.85;10.40;;;;;;;5.30;76.94;96168.47;6160049;23;20087;-85
2020/12/28 08:25:55;;;;;;;13.80;10.50;;;;;;;5.34;77.31;96158.56;6160433;23;20028;-85
2020/12/28 08:28:21;;;;;;;12.75;10.23;;;;;;;5.37;77.24;96155.66;6185698;23;20024;-84
2020/12/28 08:30:48;;;;;;;13.65;10.40;;;;;;;5.38;77.49;96152.09;6185984;23;20455;-85
2020/12/28 08:33:17;;;;;;;16.33;12.43;;;;;;;5.40;77.23;96154.56;6191702;23;20029;-86
2020/12/28 08:35:50;;;;;;;16.70;11.38;;;;;;;5.39;76.78;96156.38;6167117;23;20021;-84
2020/12/28 08:38:17;;;;;;;;;;;;;;;5.43;76.43;96154.28;6164052;23;20028;-85
2020/12/28 08:40:53;;;;;;;15.23;11.43;;;;;;;5.44;76.62;96153.31;6163567;23;19967;-86
2020/12/28 08:43:20;;;;;;;18.83;11.77;;;;;;;5.45;77.22;96152.34;6163081;23;20029;-84
2020/12/28 08:45:46;;;;;;;18.80;12.32;;;;;;;5.44;77.14;96151.53;6159709;23;20029;-86
2020/12/28 08:48:12;;;;;;;17.25;11.68;;;;;;;5.45;77.47;96150.56;6160665;23;20052;-85
2020/12/28 08:50:39;;;;;;;18.15;12.32;;;;;;;5.48;77.97;96154.66;6187233;23;20024;-85
2020/12/28 08:53:05;;;;;;;17.20;12.75;;;;;;;5.52;77.75;96152.56;6186325;23;20395;-85
2020/12/28 08:55:31;;;;;;;17.25;11.98;;;;;;;5.57;77.85;96164.22;6187155;23;20024;-85
2020/12/28 08:58:00;;;;;;;16.88;12.70;;;;;;;5.61;77.86;96170.78;6160711;23;20025;-87
2020/12/28 09:00:27;;;;;;;17.25;12.60;;;;;;;5.65;77.61;96173.13;6162143;23;20487;-85
2020/12/28 09:02:57;;;;;;;17.02;13.57;;;;;;;5.69;77.69;96180.50;6161028;23;20063;-85
2020/12/28 09:05:24;;;;;;;17.67;13.50;;;;;;;5.74;77.81;96182.69;6161052;23;20021;-85
2020/12/28 09:07:50;;;;;;;17.73;12.82;;;;;;;5.78;77.61;96189.25;6161055;23;20017;-85
2020/12/28 09:10:16;;;;;;;18.08;13.77;;;;;;;5.83;77.61;96191.44;6161535;23;20028;-87
2020/12/28 09:12:43;;;;;;;18.90;14.20;;;;;;;5.86;77.75;96191.94;6161665;23;20321;-84
2020/12/28 09:15:10;;;;;;;19.65;14.50;;;;;;;5.90;77.39;96192.47;6160426;23;20028;-85
2020/12/28 09:17:36;;;;;;;20.60;14.00;;;;;;;5.93;77.49;96186.97;6160710;23;20021;-87
2020/12/28 09:20:04;;;;;;;17.67;13.93;;;;;;;5.95;77.53;96192.03;6186295;23;20025;-84
2020/12/28 09:22:31;;;;;;;19.05;13.60;;;;;;;5.97;77.41;96198.75;6159216;23;20032;-84
2020/12/28 09:24:57;;;;;;;17.50;12.75;;;;;;;5.98;77.26;96200.41;6186348;23;20029;-84
2020/12/28 09:27:26;;;;;;;17.20;13.80;;;;;;;6.00;77.44;96193.25;6186020;23;20025;-85
2020/12/28 09:29:52;;;;;;;16.25;12.35;;;;;;;6.04;77.46;96188.59;6159991;23;20464;-84
2020/12/28 09:32:18;;;;;;;17.25;12.30;;;;;;;6.06;77.55;96184.00;6159668;23;20021;-84
2020/12/28 09:34:44;;;;;;;16.30;12.45;;;;;;;6.11;77.92;96186.19;6185302;23;20032;-86
2020/12/28 09:37:11;;;;;;;14.85;11.57;;;;;;;6.14;77.91;96193.75;6160028;23;20029;-84
2020/12/28 09:39:37;;;;;;;14.05;11.32;;;;;;;6.19;77.82;96201.94;6160124;23;20032;-84
2020/12/28 09:42:03;;;;;;;14.90;12.23;;;;;;;6.23;77.75;96198.06;6187664;23;20032;-85
2020/12/28 09:44:30;;;;;;;16.45;12.18;;;;;;;6.28;77.70;96204.63;6162908;23;20025;-84
2020/12/28 09:46:57;;;;;;;13.95;11.23;;;;;;;6.32;77.89;96206.78;6188355;23;20025;-85
2020/12/28 09:49:23;;;;;;;14.75;11.95;;;;;;;6.36;77.77;96205.53;6187366;23;20028;-85
2020/12/28 09:51:54;;;;;;;14.05;11.75;;;;;;;6.42;77.93;96208.53;6188058;23;20021;-84
2020/12/28 09:54:22;;;;;;;13.30;11.27;;;;;;;6.46;78.35;96199.41;6188167;23;20036;-85
2020/12/28 09:57:04;;;;;;;13.98;11.20;;;;;;;6.53;78.34;96204.88;6163563;23;20101;-84
2020/12/28 09:59:39;;;;;;;14.80;12.15;;;;;;;6.56;77.47;96208.00;6188119;23;20052;-84
2020/12/28 10:02:06;;;;;;;14.75;11.80;;;;;;;6.63;77.66;96211.66;6188733;23;20021;-86
2020/12/28 10:04:32;;;;;;;14.68;11.43;;;;;;;6.66;77.31;96202.69;6187969;23;20104;-84
2020/12/28 10:06:58;;;;;;;14.65;11.60;;;;;;;6.70;77.80;96198.81;6186908;23;20382;-85
2020/12/28 10:09:25;;;;;;;15.63;11.55;;;;;;;6.74;77.87;96194.09;6161300;23;20021;-84
2020/12/28 10:11:53;;;;;;;14.50;11.70;;;;;;;6.78;77.67;96191.00;6187419;23;20060;-85
2020/12/28 10:14:19;;;;;;;12.77;10.50;;;;;;;6.85;77.76;96196.47;6187301;23;20021;-86
2020/12/28 10:16:45;;;;;;;12.95;10.15;;;;;;;6.90;77.80;96186.38;6162572;23;20029;-87
2020/12/28 10:19:11;;;;;;;14.40;10.10;;;;;;;6.97;78.06;96190.97;6187258;23;20031;-85
2020/12/28 10:21:38;;;;;;;12.25;10.30;;;;;;;7.02;77.99;96180.88;6186807;23;20025;-86
2020/12/28 10:24:04;;;;;;;9.88;8.88;;;;;;;7.09;78.00;96184.50;6187860;23;20028;-84
2020/12/28 10:26:30;;;;;;;12.02;9.52;;;;;;;7.15;77.45;96180.47;6161126;23;20020;-85
2020/12/28 10:28:57;;;;;;;8.82;7.65;;;;;;;7.20;77.34;96177.38;6162900;23;20025;-86
2020/12/28 10:31:25;;;;;;;10.25;8.02;;;;;;;7.22;77.03;96164.97;6162796;23;20103;-87
2020/12/28 10:33:53;;;;;;;8.50;6.90;;;;;;;7.25;77.29;96157.63;6163183;23;20079;-88
2020/12/28 10:36:22;;;;;;;7.18;5.97;;;;;;;7.28;76.76;96154.69;6187617;23;20021;-85
2020/12/28 10:38:49;;;;;;;9.40;6.53;;;;;;;7.30;76.78;96150.13;6187859;23;20017;-85
2020/12/28 10:41:23;;;;;;;6.53;5.75;;;;;;;7.33;76.35;96154.22;6188216;23;20024;-86
2020/12/28 10:43:49;;;;;;;6.97;5.57;;;;;;;7.38;77.03;96169.47;6161752;23;20448;-85
2020/12/28 10:46:16;;;;;;;5.63;4.88;;;;;;;7.41;76.70;96180.41;6188551;23;20036;-87
2020/12/28 10:48:42;;;;;;;5.80;4.50;;;;;;;7.43;76.65;96190.75;6161281;23;20491;-86
2020/12/28 10:51:11;;;;;;;5.57;4.47;;;;;;;7.42;75.76;96192.56;6187896;23;20021;-86
2020/12/28 10:53:38;;;;;;;5.50;4.35;;;;;;;7.45;76.65;96190.59;6161040;23;20348;-86
2020/12/28 10:56:06;;;;;;;4.47;3.85;;;;;;;7.48;76.67;96179.81;6162830;23;20030;-85
2020/12/28 10:58:32;;;;;;;6.28;4.35;;;;;;;7.51;77.09;96179.50;6186455;23;20495;-85
2020/12/28 11:00:58;;;;;;;4.53;3.95;;;;;;;7.54;77.24;96195.72;6186781;23;20029;-85
2020/12/28 11:03:24;;;;;;;3.90;3.58;;;;;;;7.58;76.76;96188.34;6189874;23;20021;-88
2020/12/28 11:05:50;;;;;;;5.75;3.92;;;;;;;7.61;76.71;96193.28;6162383;23;20024;-87
2020/12/28 11:08:16;;;;;;;5.05;3.50;;;;;;;7.65;76.53;96183.31;6161360;23;20028;-86
2020/12/28 11:10:43;;;;;;;4.38;3.65;;;;;;;7.68;76.86;96188.22;6165070;23;20352;-86
2020/12/28 11:13:09;;;;;;;3.65;3.20;;;;;;;7.72;76.94;96191.34;6186525;23;20025;-87
2020/12/28 11:15:35;;;;;;;4.13;3.22;;;;;;;7.75;76.81;96196.28;6186305;23;20025;-87
2020/12/28 11:18:01;;;;;;;3.53;3.22;;;;;;;7.82;77.64;96202.53;6160520;23;20028;-88
2020/12/28 11:20:27;;;;;;;4.72;3.35;;;;;;;7.89;77.62;96193.03;6160888;23;20100;-88
2020/12/28 11:22:53;;;;;;;4.25;3.65;;;;;;;8.00;78.93;96194.53;6186715;23;20021;-88
2020/12/28 11:25:19;;;;;;;3.97;3.58;;;;;;;8.20;81.11;96192.47;6160879;23;20452;-89
2020/12/28 11:27:46;;;;;;;4.00;3.38;;;;;;;8.49;82.34;96198.25;6160469;23;20028;-88
2020/12/28 11:30:12;;;;;;;4.20;2.80;;;;;;;8.82;82.19;96197.47;6160524;23;20025;-88
2020/12/28 11:32:38;;;;;;;3.92;2.72;;;;;;;9.10;79.98;96194.47;6159978;23;20024;-88
2020/12/28 11:35:04;;;;;;;3.40;2.35;;;;;;;9.33;79.03;96199.84;6160556;23;20028;-88
2020/12/28 11:37:31;;;;;;;2.92;2.60;;;;;;;9.58;80.50;96193.69;6160370;23;20021;-89
2020/12/28 11:39:58;;;;;;;2.80;2.58;;;;;;;9.86;82.37;96183.56;6160727;23;20045;-88
2020/12/28 11:42:29;;;;;;;3.80;2.40;;;;;;;10.15;78.43;96189.16;6160860;23;20021;-86